Time;durP1;ratioP1;P1;durP2;ratioP2;P2;SDS_P1;SDS_P2;PMS_P1;PMS_P2;Temp;Humidity;BMP_temperature;BMP_pressure;BME280_temperature;BME280_humidity;BME280_pressure;Samples;Min_cycle;Max_cycle;Signal;HPM_P1;HPM_P2
2021/04/17 00:01:51;;;;;;;23.50;9.18;;;;;;;3.32;81.03;101011.25;1708211;81;21188;-73
2021/04/17 00:04:18;;;;;;;36.13;13.25;;;;;;;3.32;81.06;101005.97;1768876;81;21195;-73
2021/04/17 00:06:44;;;;;;;30.27;14.13;;;;;;;3.29;81.08;100996.50;1763415;81;21195;-73
2021/04/17 00:09:15;;;;;;;18.07;8.53;;;;;;;3.29;81.10;100995.18;1715953;83;21575;-73
2021/04/17 00:11:42;;;;;;;30.30;11.35;;;;;;;3.30;81.14;100995.56;1715242;83;21154;-74
2021/04/17 00:14:16;;;;;;;20.72;9.65;;;;;;;3.29;81.16;100993.02;1713580;82;21187;-74
2021/04/17 00:16:42;;;;;;;22.35;9.58;;;;;;;3.31;81.20;100991.95;1721910;82;21276;-74
2021/04/17 00:19:08;;;;;;;23.18;10.00;;;;;;;3.32;81.25;100990.16;1752240;81;21228;-73
2021/04/17 00:21:35;;;;;;;27.82;10.95;;;;;;;3.32;81.27;100988.38;1730990;82;21140;-73
2021/04/17 00:24:01;;;;;;;23.83;10.08;;;;;;;3.35;81.30;100985.98;1753360;81;21202;-73
2021/04/17 00:26:27;;;;;;;24.57;10.72;;;;;;;3.33;81.33;100980.84;1761705;81;21195;-73
2021/04/17 00:28:54;;;;;;;17.37;8.15;;;;;;;3.33;81.35;100987.90;1760993;81;21230;-74
2021/04/17 00:31:20;;;;;;;19.60;8.75;;;;;;;3.31;81.36;100984.04;1761713;81;21158;-74
2021/04/17 00:33:46;;;;;;;23.62;8.33;;;;;;;3.30;81.39;100987.65;1761064;81;21151;-74
2021/04/17 00:36:13;;;;;;;21.48;8.70;;;;;;;3.30;81.41;100985.02;1762140;81;21577;-73
2021/04/17 00:38:39;;;;;;;21.33;8.98;;;;;;;3.30;81.44;100986.33;1761653;81;21124;-74
2021/04/17 00:41:06;;;;;;;24.67;9.33;;;;;;;3.28;81.47;100989.53;1762063;81;21220;-74
2021/04/17 00:43:32;;;;;;;21.68;9.55;;;;;;;3.26;81.50;100980.91;1761746;81;21262;-73
2021/04/17 00:45:58;;;;;;;25.45;10.03;;;;;;;3.27;81.50;100985.20;1761709;81;21199;-74
2021/04/17 00:48:25;;;;;;;19.35;8.48;;;;;;;3.27;81.54;100989.16;1733997;81;21119;-73
2021/04/17 00:50:51;;;;;;;14.53;7.25;;;;;;;3.28;81.56;100990.85;1762179;81;21143;-73
2021/04/17 00:53:18;;;;;;;15.32;6.45;;;;;;;3.28;81.60;100988.22;1762233;81;21211;-74
2021/04/17 00:55:44;;;;;;;15.30;6.58;;;;;;;3.31;81.62;100992.42;1761974;81;21192;-73
2021/04/17 00:58:10;;;;;;;26.60;8.08;;;;;;;3.31;81.64;100996.37;1762157;81;21175;-73
2021/04/17 01:00:37;;;;;;;19.12;7.95;;;;;;;3.28;81.68;100996.13;1761947;81;21167;-73
2021/04/17 01:03:21;;;;;;;17.12;6.97;;;;;;;3.29;81.69;100993.86;1762168;81;21215;-73
2021/04/17 01:05:48;;;;;;;32.93;15.60;;;;;;;3.29;81.70;100993.86;1734757;81;21227;-73
2021/04/17 01:08:20;;;;;;;27.98;13.00;;;;;;;3.30;81.74;100990.28;1761959;81;21160;-73
2021/04/17 01:10:54;;;;;;;17.75;7.72;;;;;;;3.27;81.73;100987.84;1761665;81;21144;-73
2021/04/17 01:13:20;;;;;;;15.03;5.75;;;;;;;3.28;81.76;100991.32;1761631;81;21163;-73
2021/04/17 01:15:47;;;;;;;17.23;6.10;;;;;;;3.26;81.77;100991.45;1762062;81;21222;-73
2021/04/17 01:18:14;;;;;;;15.32;6.78;;;;;;;3.26;81.80;100990.61;1707713;84;22148;-72
2021/04/17 01:20:52;;;;;;;35.73;10.13;;;;;;;3.26;81.83;100991.45;1707707;82;21520;-73
2021/04/17 01:23:30;;;;;;;23.20;6.28;;;;;;;3.28;81.83;100985.58;1762667;81;21179;-73
2021/04/17 01:26:09;;;;;;;19.90;8.00;;;;;;;3.28;81.85;100986.90;1707733;82;21187;-73
2021/04/17 01:28:38;;;;;;;25.70;9.15;;;;;;;3.28;81.87;100985.58;1712972;82;21458;-73
2021/04/17 01:31:06;;;;;;;42.67;11.75;;;;;;;3.30;81.92;100986.33;1724951;83;21262;-73
2021/04/17 01:33:34;;;;;;;34.85;11.83;;;;;;;3.29;81.92;100985.95;1724920;83;21208;-73
2021/04/17 01:36:02;;;;;;;22.02;8.13;;;;;;;3.28;81.94;100986.90;1696110;83;21191;-73
2021/04/17 01:38:44;;;;;;;19.80;7.22;;;;;;;3.32;81.96;100991.00;1702293;83;21183;-73
2021/04/17 01:41:33;;;;;;;20.72;7.03;;;;;;;3.29;82.00;100982.47;1724924;83;21168;-73
2021/04/17 01:44:04;;;;;;;55.70;16.77;;;;;;;3.31;82.00;100981.41;1724940;83;21224;-74
2021/04/17 01:46:33;;;;;;;15.78;6.28;;;;;;;3.32;82.02;100987.05;1719399;83;21211;-73
2021/04/17 01:49:02;;;;;;;17.87;7.03;;;;;;;3.33;82.04;100984.79;1719389;83;21147;-74
2021/04/17 01:51:29;;;;;;;18.62;8.03;;;;;;;3.35;82.04;100979.39;1719433;83;21184;-73
2021/04/17 01:53:55;;;;;;;16.97;7.45;;;;;;;3.35;82.05;100980.23;1688847;83;21592;-73
2021/04/17 01:56:21;;;;;;;18.70;7.37;;;;;;;3.33;82.06;100982.16;1694491;84;22169;-73
2021/04/17 01:58:48;;;;;;;16.55;6.30;;;;;;;3.36;82.07;100981.09;1694515;84;21232;-74
2021/04/17 02:01:19;;;;;;;37.80;12.10;;;;;;;3.36;82.10;100990.31;1694411;84;21626;-73
2021/04/17 02:03:46;;;;;;;29.55;8.93;;;;;;;3.32;82.11;100985.73;1727177;83;21156;-73
2021/04/17 02:06:12;;;;;;;16.45;5.90;;;;;;;3.33;82.13;100991.38;1727253;83;21614;-73
2021/04/17 02:08:39;;;;;;;17.35;6.47;;;;;;;3.32;82.14;100991.00;1727039;83;21277;-73
2021/04/17 02:11:05;;;;;;;22.27;7.70;;;;;;;3.31;82.14;100988.47;1727092;83;21140;-73
2021/04/17 02:13:35;;;;;;;18.60;7.15;;;;;;;3.29;82.15;100980.69;1726865;83;21135;-73
2021/04/17 02:16:04;;;;;;;;;;;;;;;3.29;82.17;100988.59;1729670;83;21176;-73
2021/04/17 02:18:44;;;;;;;17.00;8.25;;;;;;;3.31;82.19;100982.72;1726628;83;20257;-73
2021/04/17 02:21:10;;;;;;;24.60;7.90;;;;;;;3.34;82.20;100982.50;1727302;83;22120;-74
2021/04/17 02:23:37;;;;;;;14.87;7.60;;;;;;;3.34;82.20;100983.81;1694519;84;21176;-73
2021/04/17 02:26:03;;;;;;;17.92;7.10;;;;;;;3.35;82.20;100982.87;1666552;86;21156;-73
2021/04/17 02:28:29;;;;;;;31.48;9.55;;;;;;;3.36;82.22;100985.04;1746477;81;21212;-73
2021/04/17 02:30:56;;;;;;;20.88;8.10;;;;;;;3.36;82.25;100984.57;1694845;84;21140;-73
2021/04/17 02:33:22;;;;;;;23.05;8.08;;;;;;;3.35;82.26;100982.87;1695071;84;21328;-73
2021/04/17 02:35:49;;;;;;;41.65;14.75;;;;;;;3.31;82.26;100984.04;1695011;84;21215;-73
2021/04/17 02:38:16;;;;;;;19.52;7.05;;;;;;;3.29;82.26;100988.59;1751373;81;21176;-73
2021/04/17 02:40:43;;;;;;;17.02;7.92;;;;;;;3.25;82.25;100979.22;1695116;84;21164;-73
2021/04/17 02:43:09;;;;;;;23.30;9.65;;;;;;;3.22;82.27;100976.80;1698239;84;21164;-73
2021/04/17 02:45:35;;;;;;;30.30;10.18;;;;;;;3.22;82.30;100976.80;1750295;81;21783;-73
2021/04/17 02:48:03;;;;;;;22.07;7.20;;;;;;;3.19;82.28;100973.07;1742819;82;21184;-73
2021/04/17 02:50:29;;;;;;;26.05;7.92;;;;;;;3.22;82.32;100971.53;1743240;82;21156;-74
2021/04/17 02:52:55;;;;;;;28.52;9.78;;;;;;;3.24;82.35;100967.45;1743088;82;21148;-73
2021/04/17 02:55:21;;;;;;;22.75;8.98;;;;;;;3.26;82.35;100966.41;1743131;82;21139;-73
2021/04/17 02:57:48;;;;;;;29.85;10.68;;;;;;;3.28;82.38;100971.08;1743085;82;21225;-73
2021/04/17 03:00:18;;;;;;;16.67;7.42;;;;;;;3.30;82.39;100965.25;1742823;82;21658;-73
2021/04/17 03:02:45;;;;;;;17.25;7.67;;;;;;;3.30;82.40;100961.30;1743247;82;21128;-73
2021/04/17 03:05:13;;;;;;;19.05;9.60;;;;;;;3.30;82.43;100961.30;1743046;82;21176;-74
2021/04/17 03:07:39;;;;;;;28.17;11.80;;;;;;;3.28;82.46;100960.55;1743215;82;21480;-74
2021/04/17 03:10:06;;;;;;;38.10;13.25;;;;;;;3.30;82.48;100961.77;1743064;82;21190;-73
2021/04/17 03:12:33;;;;;;;49.58;17.35;;;;;;;3.29;82.50;100956.97;1742943;82;21219;-73
2021/04/17 03:15:00;;;;;;;32.38;10.18;;;;;;;3.28;82.51;100954.42;1743014;82;21172;-73
2021/04/17 03:17:26;;;;;;;39.03;12.30;;;;;;;3.25;82.51;100948.91;1732392;82;21140;-73
2021/04/17 03:19:52;;;;;;;47.78;13.98;;;;;;;3.22;82.52;100946.49;1729497;82;21176;-73
2021/04/17 03:22:19;;;;;;;38.08;12.13;;;;;;;3.21;82.55;100946.12;1741383;82;22067;-73
2021/04/17 03:24:45;;;;;;;43.98;13.45;;;;;;;3.19;82.54;100949.36;1728786;82;21128;-73
2021/04/17 03:27:12;;;;;;;35.88;12.85;;;;;;;3.17;82.57;100949.92;1741672;82;21841;-73
2021/04/17 03:29:38;;;;;;;33.20;12.07;;;;;;;3.15;82.59;100946.56;1731322;82;21209;-73
2021/04/17 03:32:05;;;;;;;38.45;12.43;;;;;;;3.14;82.61;100946.19;1712894;83;21173;-73
2021/04/17 03:34:32;;;;;;;45.40;14.98;;;;;;;3.12;82.62;100945.47;1712833;83;21284;-73
2021/04/17 03:36:58;;;;;;;45.23;14.68;;;;;;;3.14;82.67;100953.25;1712848;83;21189;-73
2021/04/17 03:39:25;;;;;;;30.17;11.25;;;;;;;3.15;82.68;100957.11;1713015;83;21182;-73
2021/04/17 03:41:51;;;;;;;25.12;8.30;;;;;;;3.14;82.69;100964.63;1713075;83;21624;-73
2021/04/17 03:44:18;;;;;;;21.37;9.33;;;;;;;3.17;82.72;100968.37;1721561;82;21156;-73
2021/04/17 03:46:44;;;;;;;25.43;8.20;;;;;;;3.18;82.75;100972.69;1749029;81;21206;-73
2021/04/17 03:49:10;;;;;;;14.68;7.67;;;;;;;3.19;82.76;100972.22;1750743;82;21151;-73
2021/04/17 03:51:37;;;;;;;25.97;8.35;;;;;;;3.19;82.79;100971.75;1750841;81;21168;-73
2021/04/17 03:54:03;;;;;;;22.40;9.93;;;;;;;3.23;82.79;100971.91;1750898;81;21155;-73
2021/04/17 03:56:29;;;;;;;33.78;13.32;;;;;;;3.23;82.82;100965.32;1750922;81;21152;-73
2021/04/17 03:58:56;;;;;;;23.10;9.78;;;;;;;3.22;82.83;100968.05;1750882;82;21278;-73
2021/04/17 04:01:22;;;;;;;29.37;11.15;;;;;;;3.20;82.85;100971.28;1750474;82;21221;-73
2021/04/17 04:03:48;;;;;;;27.75;11.85;;;;;;;3.19;82.85;100974.39;1750778;82;21176;-73
2021/04/17 04:06:18;;;;;;;23.83;9.10;;;;;;;3.21;82.87;100971.63;1748987;82;21614;-74
2021/04/17 04:08:44;;;;;;;20.48;8.53;;;;;;;3.22;82.90;100976.80;1725416;83;21223;-72
2021/04/17 04:11:10;;;;;;;19.10;7.55;;;;;;;3.22;82.92;100979.44;1725460;83;21163;-73
2021/04/17 04:13:36;;;;;;;18.90;8.28;;;;;;;3.23;82.93;100981.12;1725215;83;21184;-73
2021/04/17 04:16:03;;;;;;;21.57;8.78;;;;;;;3.25;82.96;100975.73;1725594;83;21143;-73
2021/04/17 04:18:29;;;;;;;24.52;10.05;;;;;;;3.26;82.98;100980.91;1725530;83;21169;-73
2021/04/17 04:20:56;;;;;;;15.55;6.78;;;;;;;3.30;82.99;100985.02;1725642;83;21203;-73
2021/04/17 04:23:22;;;;;;;22.17;7.83;;;;;;;3.33;83.02;100990.06;1725221;83;21422;-73
2021/04/17 04:25:48;;;;;;;21.82;6.75;;;;;;;3.37;83.03;100987.58;1696263;83;21160;-73
2021/04/17 04:28:15;;;;;;;20.37;8.93;;;;;;;3.39;83.03;100989.62;1724927;83;21144;-73
2021/04/17 04:30:41;;;;;;;14.70;6.97;;;;;;;3.46;83.05;100990.86;1759019;81;21148;-73
2021/04/17 04:33:08;;;;;;;16.15;8.78;;;;;;;3.49;83.06;100998.55;1758980;81;21640;-73
2021/04/17 04:35:34;;;;;;;17.37;6.65;;;;;;;3.46;83.08;101000.09;1758890;81;21648;-73
2021/04/17 04:38:01;;;;;;;22.35;7.78;;;;;;;3.47;83.10;101008.38;1758956;81;21184;-73
2021/04/17 04:40:29;;;;;;;15.95;7.08;;;;;;;3.44;83.09;101003.33;1758718;81;21171;-73
2021/04/17 04:42:55;;;;;;;16.32;6.83;;;;;;;3.43;83.08;101004.27;1758863;81;21631;-73
2021/04/17 04:45:22;;;;;;;13.40;5.80;;;;;;;3.47;83.11;101011.02;1756207;81;21168;-73
2021/04/17 04:47:48;;;;;;;23.57;8.35;;;;;;;3.48;83.10;101007.40;1688642;84;21161;-73
2021/04/17 04:50:14;;;;;;;21.70;7.55;;;;;;;3.49;83.09;101014.37;1699535;84;21199;-73
2021/04/17 04:52:41;;;;;;;19.87;7.70;;;;;;;3.50;83.11;101005.52;1715381;83;21140;-73
2021/04/17 04:55:08;;;;;;;18.15;7.15;;;;;;;3.52;83.10;101011.50;1699792;84;21227;-73
2021/04/17 04:57:34;;;;;;;20.00;7.47;;;;;;;3.55;83.11;101017.53;1715143;83;21585;-73
2021/04/17 05:00:01;;;;;;;71.72;16.40;;;;;;;3.57;83.11;101010.34;1699782;84;21218;-73
2021/04/17 05:02:27;;;;;;;15.85;7.60;;;;;;;3.59;83.14;101009.27;1715220;83;21139;-73
2021/04/17 05:04:53;;;;;;;33.48;14.50;;;;;;;3.61;83.15;101011.80;1699717;84;21660;-73
2021/04/17 05:07:19;;;;;;;32.20;15.50;;;;;;;3.62;83.13;101014.81;1715322;83;21128;-73
2021/04/17 05:09:46;;;;;;;25.80;8.90;;;;;;;3.65;83.10;101013.27;1707168;82;21533;-73
2021/04/17 05:12:13;;;;;;;37.98;12.25;;;;;;;3.67;83.13;101003.45;1730500;82;22598;-73
2021/04/17 05:14:39;;;;;;;16.17;7.20;;;;;;;3.71;83.13;101016.78;1730055;82;21161;-73
2021/04/17 05:17:05;;;;;;;18.50;8.40;;;;;;;3.68;83.13;101015.69;1730396;82;21156;-73
2021/04/17 05:19:32;;;;;;;23.05;9.98;;;;;;;3.68;83.14;101027.55;1692658;83;21251;-73
2021/04/17 05:21:58;;;;;;;22.17;11.50;;;;;;;3.69;83.14;101027.93;1692917;84;21157;-73
2021/04/17 05:24:24;;;;;;;27.70;12.90;;;;;;;3.69;83.14;101026.61;1722364;82;21184;-73
2021/04/17 05:26:51;;;;;;;23.67;11.15;;;;;;;3.69;83.13;101012.95;1745430;82;21204;-73
2021/04/17 05:29:17;;;;;;;27.17;11.40;;;;;;;3.69;83.12;101002.41;1745731;82;21192;-73
2021/04/17 05:31:44;;;;;;;28.77;10.50;;;;;;;3.76;83.10;101004.96;1745338;82;21168;-73
2021/04/17 05:34:10;;;;;;;27.13;9.58;;;;;;;3.84;83.14;100998.63;1745753;82;21181;-73
2021/04/17 05:36:36;;;;;;;27.93;12.70;;;;;;;3.96;83.13;101007.45;1745395;82;21201;-73
2021/04/17 05:39:04;;;;;;;28.70;12.15;;;;;;;4.07;83.11;101008.83;1730205;82;21155;-73
2021/04/17 05:41:30;;;;;;;25.50;12.98;;;;;;;4.14;83.12;101008.73;1738965;82;21144;-73
2021/04/17 05:43:57;;;;;;;27.15;13.35;;;;;;;4.16;83.12;101009.92;1732098;82;22072;-73
2021/04/17 05:46:23;;;;;;;31.93;12.68;;;;;;;4.12;83.10;101014.58;1745620;81;21125;-73
2021/04/17 05:48:49;;;;;;;32.65;12.05;;;;;;;4.05;83.09;101019.95;1745492;82;21207;-73
2021/04/17 05:51:16;;;;;;;131.37;35.85;;;;;;;4.02;83.08;101022.34;1745452;82;21157;-73
2021/04/17 05:53:43;;;;;;;81.65;26.05;;;;;;;4.01;83.07;101025.12;1727205;83;21128;-73
2021/04/17 05:56:10;;;;;;;43.08;13.93;;;;;;;3.98;83.08;101029.27;1727403;83;21578;-73
2021/04/17 05:58:37;;;;;;;55.63;20.70;;;;;;;3.96;83.05;101028.56;1727559;83;21585;-73
2021/04/17 06:01:03;;;;;;;64.60;21.25;;;;;;;3.98;83.04;101026.63;1729539;82;21176;-73
2021/04/17 06:03:29;;;;;;;66.57;23.18;;;;;;;3.99;83.07;101023.05;1730183;82;21662;-73
2021/04/17 06:05:56;;;;;;;55.85;24.37;;;;;;;4.03;83.04;101035.06;1745057;82;21116;-73
2021/04/17 06:08:22;;;;;;;64.05;27.67;;;;;;;4.04;83.01;101032.80;1727513;83;21172;-73
2021/04/17 06:10:49;;;;;;;81.08;26.15;;;;;;;4.03;82.98;101031.95;1745449;82;21157;-73
2021/04/17 06:13:15;;;;;;;69.53;23.92;;;;;;;4.05;82.99;101031.83;1727422;83;21307;-73
2021/04/17 06:15:41;;;;;;;82.90;29.07;;;;;;;4.07;82.96;101035.22;1727382;83;21147;-73
2021/04/17 06:18:07;;;;;;;85.12;32.30;;;;;;;4.02;82.93;101034.69;1675850;83;21688;-73
2021/04/17 06:20:34;;;;;;;23.62;9.05;;;;;;;4.00;82.94;101030.87;1707224;84;21610;-73
2021/04/17 06:23:00;;;;;;;26.68;11.05;;;;;;;3.96;82.93;101032.04;1708251;82;21157;-73
2021/04/17 06:25:26;;;;;;;23.92;11.00;;;;;;;3.94;82.94;101029.16;1725258;83;21954;-73
2021/04/17 06:27:53;;;;;;;45.10;17.00;;;;;;;3.96;82.91;101029.41;1727096;83;21167;-73
2021/04/17 06:30:20;;;;;;;42.08;15.50;;;;;;;4.01;82.90;101027.75;1727542;83;21180;-73
2021/04/17 06:32:46;;;;;;;50.12;22.40;;;;;;;4.10;82.90;101031.02;1729375;82;21115;-73
2021/04/17 06:35:13;;;;;;;42.58;18.70;;;;;;;4.18;82.88;101036.59;1720847;82;21160;-73
2021/04/17 06:37:39;;;;;;;32.88;12.50;;;;;;;4.21;82.84;101033.72;1728687;82;21219;-73
2021/04/17 06:40:06;;;;;;;28.02;12.35;;;;;;;4.24;82.83;101030.84;1730354;82;21148;-73
2021/04/17 06:42:32;;;;;;;25.62;11.33;;;;;;;4.27;82.86;101025.33;1730284;82;21176;-73
2021/04/17 06:44:59;;;;;;;21.82;10.30;;;;;;;4.29;82.85;101025.23;1728207;82;21175;-73
2021/04/17 06:47:26;;;;;;;58.33;30.12;;;;;;;4.31;82.83;101025.95;1740146;81;21140;-73
2021/04/17 06:49:52;;;;;;;34.03;18.45;;;;;;;4.36;82.82;101019.86;1725228;83;22228;-73
2021/04/17 06:52:20;;;;;;;30.95;13.35;;;;;;;4.42;82.81;101017.59;1725551;83;21251;-73
2021/04/17 06:54:46;;;;;;;29.35;13.15;;;;;;;4.47;82.78;101012.79;1725668;81;21128;-73
2021/04/17 06:57:13;;;;;;;26.02;10.98;;;;;;;4.49;82.76;101012.22;1757913;81;21139;-73
2021/04/17 06:59:39;;;;;;;25.85;10.95;;;;;;;4.53;82.77;101013.67;1758880;81;21588;-73
2021/04/17 07:02:07;;;;;;;16.40;8.88;;;;;;;4.59;82.75;101012.82;1758810;81;21592;-73
2021/04/17 07:04:33;;;;;;;17.60;9.73;;;;;;;4.68;82.74;101014.78;1758968;81;21191;-73
2021/04/17 07:07:01;;;;;;;18.45;9.50;;;;;;;4.73;82.74;101016.10;1758591;81;21143;-73
2021/04/17 07:09:27;;;;;;;19.37;9.40;;;;;;;4.79;82.71;101012.98;1758346;81;21231;-73
2021/04/17 07:11:54;;;;;;;17.55;10.03;;;;;;;4.85;82.70;101015.65;1758815;81;21203;-73
2021/04/17 07:14:20;;;;;;;17.80;9.75;;;;;;;4.91;82.66;101017.81;1759058;81;21269;-73
2021/04/17 07:17:02;;;;;;;18.42;9.48;;;;;;;4.90;82.62;101021.41;1758163;81;21167;-73
2021/04/17 07:19:53;;;;;;;22.17;11.28;;;;;;;4.86;82.59;101019.95;1758815;81;21131;-73
2021/04/17 07:22:31;;;;;;;38.13;20.37;;;;;;;4.84;82.58;101014.80;1758911;81;21180;-74
2021/04/17 07:25:12;;;;;;;28.25;12.75;;;;;;;4.84;82.53;101021.88;1758750;81;21168;-73
2021/04/17 07:27:49;;;;;;;44.88;19.48;;;;;;;4.85;82.48;101016.97;1758780;81;21287;-74
2021/04/17 07:30:23;;;;;;;43.05;19.80;;;;;;;4.86;82.44;101019.95;1758915;81;21606;-74
2021/04/17 07:33:05;;;;;;;35.88;17.55;;;;;;;4.95;82.40;101022.75;1758143;81;21187;-73
2021/04/17 07:35:42;;;;;;;49.23;23.83;;;;;;;4.98;82.35;101022.98;1758148;81;21172;-74
2021/04/17 07:38:18;;;;;;;27.52;14.05;;;;;;;5.03;82.32;101027.45;1758764;81;21648;-74
2021/04/17 07:40:47;;;;;;;55.98;28.15;;;;;;;5.06;82.30;101032.48;1758891;81;21241;-73
2021/04/17 07:43:17;;;;;;;25.43;15.72;;;;;;;5.09;82.25;101031.40;1758957;81;21200;-73
2021/04/17 07:45:42;;;;;;;40.50;22.00;;;;;;;5.08;82.21;101035.00;1755183;81;21161;-73
2021/04/17 07:48:26;;;;;;;40.05;18.77;;;;;;;5.09;82.19;101034.89;1748095;81;21183;-75
2021/04/17 07:50:55;;;;;;;108.90;40.05;;;;;;;5.10;82.11;101039.22;1742712;81;21155;-73
2021/04/17 07:53:39;;;;;;;48.80;20.87;;;;;;;5.09;82.04;101041.97;1731916;82;21281;-73
2021/04/17 07:56:30;;;;;;;33.20;15.65;;;;;;;5.04;82.04;101044.48;1731611;82;21148;-73
2021/04/17 07:59:01;;;;;;;32.75;17.82;;;;;;;5.01;81.99;101048.70;1732736;81;21136;-74
2021/04/17 08:01:29;;;;;;;43.05;24.02;;;;;;;4.98;81.94;101045.45;1761527;81;21557;-74
2021/04/17 08:03:58;;;;;;;38.80;21.77;;;;;;;4.97;81.93;101041.11;1734091;81;21161;-73
2021/04/17 08:06:25;;;;;;;36.08;18.02;;;;;;;4.98;81.94;101041.48;1740317;81;21216;-74
2021/04/17 08:08:52;;;;;;;30.48;14.85;;;;;;;5.02;81.92;101044.25;1751990;81;21144;-74
2021/04/17 08:11:20;;;;;;;22.25;12.18;;;;;;;5.06;81.91;101043.06;1758261;81;21640;-73
2021/04/17 08:13:47;;;;;;;34.92;15.68;;;;;;;5.10;81.87;101037.91;1759108;81;21171;-73
2021/04/17 08:16:15;;;;;;;38.85;16.97;;;;;;;5.15;81.85;101040.17;1716407;82;21145;-74
2021/04/17 08:18:42;;;;;;;66.42;26.77;;;;;;;5.18;81.83;101042.09;1716585;81;22563;-73
2021/04/17 08:21:11;;;;;;;49.48;20.12;;;;;;;5.18;81.82;101039.45;1709319;83;21175;-74
2021/04/17 08:23:37;;;;;;;22.30;12.18;;;;;;;5.18;81.78;101037.28;1702309;83;21187;-73
2021/04/17 08:26:06;;;;;;;19.62;11.38;;;;;;;5.18;81.73;101032.84;1702975;84;21187;-74
2021/04/17 08:28:44;;;;;;;29.10;12.60;;;;;;;5.16;81.69;101034.77;1702276;83;21151;-73
2021/04/17 08:31:33;;;;;;;53.15;24.55;;;;;;;5.21;81.69;101028.62;1711093;82;21211;-73
2021/04/17 08:34:18;;;;;;;31.60;15.15;;;;;;;5.25;81.67;101033.19;1708795;82;21195;-73
2021/04/17 08:36:52;;;;;;;64.90;29.32;;;;;;;5.27;81.63;101028.64;1703527;84;21186;-73
2021/04/17 08:39:35;;;;;;;48.08;21.57;;;;;;;5.32;81.58;101028.62;1703596;84;22217;-73
2021/04/17 08:42:06;;;;;;;41.42;16.82;;;;;;;5.39;81.58;101024.54;1691237;84;21151;-74
2021/04/17 08:44:41;;;;;;;145.60;52.35;;;;;;;5.47;81.55;101018.17;1722769;82;21222;-74
2021/04/17 08:47:09;;;;;;;199.95;77.65;;;;;;;5.40;81.51;101024.91;1719499;81;21216;-73
2021/04/17 08:49:39;;;;;;;95.40;42.60;;;;;;;5.36;81.54;101022.14;1707379;83;21193;-73
2021/04/17 08:52:22;;;;;;;79.77;35.73;;;;;;;5.34;81.54;101024.08;1727558;83;21145;-73
2021/04/17 08:55:03;;;;;;;36.03;18.98;;;;;;;5.33;81.54;101021.55;1709602;83;21153;-73
2021/04/17 08:57:29;;;;;;;28.95;13.88;;;;;;;5.29;81.52;101019.63;1695796;84;22236;-72
2021/04/17 08:59:57;;;;;;;20.62;10.32;;;;;;;5.30;81.50;101017.34;1695614;84;21174;-73
2021/04/17 09:02:24;;;;;;;34.18;15.05;;;;;;;5.27;81.46;101017.59;1695639;84;21647;-73
2021/04/17 09:05:09;;;;;;;44.03;20.68;;;;;;;5.29;81.46;101018.30;1695782;84;21192;-73
2021/04/17 09:07:38;;;;;;;33.80;14.07;;;;;;;5.37;81.48;101018.55;1713108;83;21162;-73
2021/04/17 09:10:31;;;;;;;28.77;12.05;;;;;;;5.39;81.45;101013.95;1649105;86;22218;-73
2021/04/17 09:13:18;;;;;;;50.80;21.57;;;;;;;5.40;81.42;101005.08;1697175;84;21199;-72
2021/04/17 09:16:01;;;;;;;40.10;16.55;;;;;;;5.46;81.45;101007.22;1659897;85;21194;-73
2021/04/17 09:18:40;;;;;;;47.17;20.02;;;;;;;5.45;81.40;101000.23;1678552;85;21210;-73
2021/04/17 09:21:15;;;;;;;54.65;27.62;;;;;;;5.46;81.40;100999.28;1673310;85;21217;-73
2021/04/17 09:23:44;;;;;;;59.93;31.87;;;;;;;5.49;81.40;100993.75;1673340;85;22074;-73
2021/04/17 09:26:33;;;;;;;51.13;24.00;;;;;;;5.53;81.40;100989.89;1673437;85;21212;-73
2021/04/17 09:29:09;;;;;;;30.77;13.43;;;;;;;5.55;81.39;100984.50;1603446;88;21192;-73
2021/04/17 09:31:37;;;;;;;48.60;20.05;;;;;;;5.47;81.35;100986.42;1678770;84;21128;-73
2021/04/17 09:34:07;;;;;;;38.60;18.35;;;;;;;5.49;81.35;100988.93;1701924;84;21163;-73
2021/04/17 09:36:33;;;;;;;;;;;;;;;5.60;81.34;100981.45;1704277;84;22359;-73
2021/04/17 09:39:00;;;;;;;36.55;17.37;;;;;;;5.66;81.33;100980.98;1701599;84;20436;-74
2021/04/17 09:41:51;;;;;;;36.10;18.80;;;;;;;5.67;81.32;100977.34;1701814;84;21144;-74
2021/04/17 09:44:19;;;;;;;25.77;13.20;;;;;;;5.65;81.28;100973.52;1701909;84;21625;-74
2021/04/17 09:46:47;;;;;;;31.77;16.42;;;;;;;5.66;81.30;100975.69;1700366;84;21148;-73
2021/04/17 09:49:35;;;;;;;28.95;12.53;;;;;;;5.68;81.28;100981.20;1749151;81;21223;-73
2021/04/17 09:52:02;;;;;;;44.25;18.48;;;;;;;5.72;81.26;100987.09;1750440;82;21584;-74
2021/04/17 09:54:28;;;;;;;33.98;15.88;;;;;;;5.75;81.27;100978.91;1733794;81;21155;-74
2021/04/17 09:56:54;;;;;;;34.23;15.18;;;;;;;5.77;81.24;100986.25;1717972;81;21221;-73
2021/04/17 09:59:20;;;;;;;39.35;17.00;;;;;;;5.77;81.24;100988.90;1749217;81;21203;-73
2021/04/17 10:01:54;;;;;;;30.97;13.35;;;;;;;5.77;81.23;100986.25;1724817;81;21941;-74
2021/04/17 10:04:21;;;;;;;42.20;18.12;;;;;;;5.78;81.20;100986.59;1740624;82;21187;-73
2021/04/17 10:06:57;;;;;;;31.97;13.93;;;;;;;5.74;81.17;100977.21;1749777;82;22301;-73
2021/04/17 10:09:23;;;;;;;42.48;13.72;;;;;;;5.71;81.17;100980.11;1735578;82;21784;-73
2021/04/17 10:11:51;;;;;;;30.60;14.60;;;;;;;5.69;81.15;100980.73;1737018;82;21203;-73
2021/04/17 10:14:18;;;;;;;43.92;20.62;;;;;;;5.69;81.11;100972.80;1723663;82;21183;-73
2021/04/17 10:16:46;;;;;;;36.20;18.62;;;;;;;5.69;81.10;100974.12;1727046;82;21205;-73
2021/04/17 10:19:17;;;;;;;39.80;21.10;;;;;;;5.67;81.09;100970.26;1732493;82;21635;-73
2021/04/17 10:21:48;;;;;;;44.77;20.97;;;;;;;5.67;81.10;100974.70;1736987;82;21605;-73
2021/04/17 10:24:28;;;;;;;39.67;20.32;;;;;;;5.75;81.13;100972.28;1750028;82;21593;-73
2021/04/17 10:27:07;;;;;;;50.90;18.90;;;;;;;5.74;81.12;100976.73;1750113;81;21300;-73
2021/04/17 10:29:51;;;;;;;41.05;19.57;;;;;;;5.77;81.11;100974.34;1750151;81;21589;-73
2021/04/17 10:32:20;;;;;;;40.88;18.50;;;;;;;5.81;81.11;100966.48;1749990;81;21227;-73
2021/04/17 10:34:51;;;;;;;40.50;18.75;;;;;;;5.82;81.12;100970.82;1750035;82;21164;-73
2021/04/17 10:37:23;;;;;;;44.25;21.17;;;;;;;5.85;81.14;100966.59;1750127;82;21160;-73
2021/04/17 10:40:18;;;;;;;33.38;17.75;;;;;;;5.85;81.12;100970.56;1750026;82;21617;-74
2021/04/17 10:43:00;;;;;;;37.50;18.02;;;;;;;5.92;81.16;100970.45;1749432;82;21159;-73
2021/04/17 10:45:35;;;;;;;48.38;32.65;;;;;;;6.04;81.17;100970.78;1739866;81;21641;-74
2021/04/17 10:48:09;;;;;;;31.62;18.37;;;;;;;6.17;81.15;100968.78;1740040;82;21755;-73
2021/04/17 10:50:46;;;;;;;31.95;15.28;;;;;;;6.29;81.13;100969.09;1746349;81;21680;-73
2021/04/17 10:53:15;;;;;;;35.73;18.32;;;;;;;6.40;81.10;100970.33;1732251;82;21964;-73
2021/04/17 10:55:49;;;;;;;39.60;20.05;;;;;;;6.55;81.07;100974.83;1745907;82;21148;-74
2021/04/17 10:58:30;;;;;;;45.55;19.95;;;;;;;6.72;81.04;100980.86;1743335;81;21203;-73
2021/04/17 11:01:14;;;;;;;84.80;45.67;;;;;;;6.92;81.04;100973.86;1743811;82;21637;-74
2021/04/17 11:03:49;;;;;;;84.75;53.70;;;;;;;7.02;80.97;100972.94;1746316;82;21136;-74
2021/04/17 11:06:19;;;;;;;40.40;14.53;;;;;;;7.12;80.93;100972.13;1745249;82;21418;-74
2021/04/17 11:08:46;;;;;;;25.48;13.88;;;;;;;7.24;80.89;100977.70;1745502;82;21171;-74
2021/04/17 11:11:21;;;;;;;25.48;11.48;;;;;;;7.32;80.86;100977.36;1746401;82;21570;-74
2021/04/17 11:13:59;;;;;;;41.13;20.12;;;;;;;7.39;80.79;100981.15;1746279;82;21140;-74
2021/04/17 11:16:46;;;;;;;51.08;19.80;;;;;;;7.50;80.77;100979.72;1746386;82;21622;-74
2021/04/17 11:19:32;;;;;;;60.28;23.10;;;;;;;7.69;80.71;100975.43;1746370;82;23142;-74
2021/04/17 11:25:06;;;;;;;43.23;19.45;;;;;;;7.88;80.48;100972.30;1852511;77;22768;-74
2021/04/17 11:27:33;;;;;;;25.68;11.08;;;;;;;7.95;80.42;100971.28;1824470;78;21569;-74
2021/04/17 11:30:01;;;;;;;177.78;47.40;;;;;;;8.20;80.32;100966.72;1824582;78;21141;-74
2021/04/17 11:32:28;;;;;;;94.30;35.35;;;;;;;8.34;80.14;100963.66;1824526;78;21195;-74
2021/04/17 11:34:55;;;;;;;52.60;28.32;;;;;;;8.45;80.05;100968.82;1824306;78;21518;-74